.
WxDataArchive / Data Records for 2008-02-16
2008-02-15 February 2008 2008-02-17

Data Records for Saturday, 16 February 2008

Time	Temp	Chill	HIndex	Humid	Dewpt	 Wind 	HiWind	WindDir	Rain 	Barom 
-----	----	-----	------	-----	-----	------	------	-------	-----	----- 
00:00	14.8	14.8	14.8	78	9.2	0	0	---	0.00	30.345 
00:05	14.6	14.6	14.6	78	9.0	0	0	---	0.00	30.347 
00:10	14.4	14.4	14.4	79	9.1	0	0	---	0.00	30.348 
00:15	14.4	14.4	14.4	79	9.1	0	0	---	0.00	30.348 
00:20	14.1	14.1	14.1	79	8.8	0	0	---	0.00	30.347 
00:25	14.0	14.0	14.0	80	9.0	0	0	---	0.00	30.345 
00:30	13.8	13.8	13.8	80	8.8	0	0	---	0.00	30.339 
00:35	13.5	13.5	13.5	80	8.5	0	0	---	0.00	30.336 
00:40	13.3	13.3	13.3	81	8.6	0	0	---	0.00	30.340 
00:45	13.3	13.3	13.3	81	8.6	0	0	---	0.00	30.342 
00:50	13.1	13.1	13.1	81	8.4	0	0	---	0.00	30.343 
00:55	13.1	13.1	13.1	82	8.7	0	0	---	0.00	30.342 
01:00	12.8	12.8	12.8	81	8.1	0	0	---	0.00	30.343 
01:05	12.6	12.6	12.6	81	7.9	0	0	---	0.00	30.344 
01:10	12.4	12.4	12.4	81	7.7	0	0	---	0.00	30.337 
01:15	12.3	12.3	12.3	82	7.9	0	0	---	0.00	30.338 
01:20	12.3	12.3	12.3	82	7.9	0	0	---	0.00	30.335 
01:25	12.4	12.4	12.4	83	8.2	0	0	---	0.00	30.332 
01:30	12.6	12.6	12.6	83	8.4	0	0	---	0.00	30.332 
01:35	12.6	12.6	12.6	83	8.4	0	0	---	0.00	30.333 
01:40	12.6	12.6	12.6	84	8.7	0	0	---	0.00	30.333 
01:45	12.6	12.6	12.6	84	8.7	0	0	---	0.00	30.332 
01:50	12.6	12.6	12.6	83	8.4	0	0	---	0.00	30.332 
01:55	12.4	12.4	12.4	83	8.2	0	0	---	0.00	30.333 
02:00	12.3	12.3	12.3	83	8.1	0	0	---	0.00	30.332 
02:05	11.9	11.9	11.9	83	7.8	0	0	---	0.00	30.335 
02:10	11.7	11.7	11.7	83	7.6	0	0	---	0.00	30.335 
02:15	11.6	11.6	11.6	83	7.5	0	0	---	0.00	30.335 
02:20	11.4	11.4	11.4	83	7.3	0	0	---	0.00	30.335 
02:25	11.2	11.2	11.2	83	7.1	0	0	---	0.00	30.332 
02:30	11.1	11.1	11.1	84	7.2	0	0	---	0.00	30.330 
02:35	10.9	10.9	10.9	84	7.0	0	0	---	0.00	30.331 
02:40	10.9	10.9	10.9	84	7.0	0	0	---	0.00	30.326 
02:45	10.7	10.7	10.7	84	6.8	0	0	---	0.00	30.325 
02:50	10.7	10.7	10.7	84	6.8	0	0	---	0.00	30.326 
02:55	10.5	10.5	10.5	84	6.6	0	0	---	0.00	30.326 
03:00	10.5	10.5	10.5	84	6.6	0	0	---	0.00	30.326 
03:05	10.5	10.5	10.5	85	6.9	0	0	---	0.00	30.327 
03:10	10.7	10.7	10.7	85	7.1	0	0	---	0.00	30.321 
03:15	10.7	10.7	10.7	85	7.1	0	0	---	0.00	30.320 
03:20	10.7	10.7	10.7	85	7.1	0	0	---	0.00	30.319 
03:25	10.7	10.7	10.7	86	7.4	0	0	---	0.00	30.312 
03:30	10.7	10.7	10.7	86	7.4	0	0	---	0.00	30.312 
03:35	10.7	10.7	10.7	86	7.4	0	0	---	0.00	30.313 
03:40	10.7	10.7	10.7	86	7.4	0	0	---	0.00	30.311 
03:45	10.7	10.7	10.7	86	7.4	0	0	---	0.00	30.309 
03:50	10.7	10.7	10.7	86	7.4	0	0	---	0.00	30.309 
03:55	10.5	10.5	10.5	86	7.2	0	0	---	0.00	30.307 
04:00	10.5	10.5	10.5	86	7.2	0	0	---	0.00	30.313 
04:05	10.5	10.5	10.5	86	7.2	0	0	---	0.00	30.319 
04:10	10.4	10.4	10.4	86	7.1	0	0	---	0.00	30.316 
04:15	10.4	10.4	10.4	86	7.1	0	0	---	0.00	30.317 
04:20	10.2	10.2	10.2	86	6.9	0	0	---	0.00	30.319 
04:25	10.0	10.0	10.0	86	6.7	0	0	---	0.00	30.323 
04:30	10.0	10.0	10.0	86	6.7	0	0	---	0.00	30.324 
04:35	9.9	9.9	9.9	86	6.6	0	0	---	0.00	30.324 
04:40	9.9	9.9	9.9	86	6.6	0	0	---	0.00	30.325 
04:45	9.7	9.7	9.7	86	6.4	0	0	---	0.00	30.326 
04:50	9.7	9.7	9.7	86	6.4	0	0	---	0.00	30.326 
04:55	9.7	9.7	9.7	86	6.4	0	0	---	0.00	30.325 
05:00	9.5	9.5	9.5	86	6.2	0	0	---	0.00	30.325 
05:05	9.5	9.5	9.5	86	6.2	0	0	---	0.00	30.325 
05:10	9.3	9.3	9.3	86	6.0	0	0	---	0.00	30.326 
05:15	9.3	9.3	9.3	86	6.0	0	0	---	0.00	30.327 
05:20	9.5	9.5	9.5	86	6.2	0	0	---	0.00	30.325 
05:25	9.7	9.7	9.7	86	6.4	0	0	---	0.00	30.323 
05:30	10.0	10.0	10.0	87	6.9	0	0	---	0.00	30.321 
05:35	10.4	10.4	10.4	87	7.3	0	0	---	0.00	30.322 
05:40	10.7	10.7	10.7	87	7.6	0	0	---	0.00	30.319 
05:45	10.9	10.9	10.9	87	7.8	0	0	---	0.00	30.313 
05:50	11.2	11.2	11.2	88	8.4	0	0	---	0.00	30.316 
05:55	11.6	11.6	11.6	88	8.7	0	0	---	0.00	30.312 
06:00	12.1	12.1	12.1	88	9.2	0	0	---	0.00	30.321 
06:05	12.3	12.3	12.3	88	9.4	0	0	---	0.00	30.324 
06:10	12.4	12.4	12.4	88	9.5	0	0	---	0.00	30.325 
06:15	12.6	12.6	12.6	88	9.7	0	0	---	0.00	30.323 
06:20	12.6	12.6	12.6	88	9.7	0	0	---	0.00	30.322 
06:25	12.8	12.8	12.8	88	9.9	0	0	---	0.00	30.322 
06:30	12.9	12.9	12.9	88	10.0	0	0	---	0.00	30.323 
06:35	13.1	13.1	13.1	88	10.2	0	0	---	0.00	30.323 
06:40	13.3	13.3	13.3	88	10.4	0	0	---	0.00	30.323 
06:45	13.5	13.5	13.5	87	10.4	0	0	---	0.00	30.324 
06:50	13.6	13.6	13.6	87	10.5	0	0	---	0.00	30.323 
06:55	13.6	13.6	13.6	87	10.5	0	0	---	0.00	30.322 
07:00	13.6	13.6	13.6	87	10.5	0	0	---	0.00	30.321 
07:05	13.5	13.5	13.5	87	10.4	0	0	---	0.00	30.322 
07:10	13.3	13.3	13.3	86	9.9	0	0	---	0.00	30.319 
07:15	12.9	12.9	12.9	86	9.5	0	0	---	0.00	30.323 
07:20	12.8	12.8	12.8	86	9.4	0	0	---	0.00	30.325 
07:25	12.6	12.6	12.6	86	9.2	0	0	---	0.00	30.325 
07:30	12.4	12.4	12.4	86	9.0	0	0	---	0.00	30.326 
07:35	12.3	12.3	12.3	86	8.9	0	0	---	0.00	30.324 
07:40	12.1	12.1	12.1	86	8.7	0	0	---	0.00	30.322 
07:45	11.9	11.9	11.9	86	8.5	0	0	---	0.00	30.323 
07:50	11.7	11.7	11.7	86	8.3	0	0	---	0.00	30.324 
07:55	11.7	11.7	11.7	86	8.3	0	0	---	0.00	30.325 
08:00	11.7	11.7	11.7	86	8.3	0	0	---	0.00	30.325 
08:05	11.7	11.7	11.7	86	8.3	0	0	---	0.00	30.328 
08:10	12.1	12.1	12.1	87	9.0	0	0	---	0.00	30.329 
08:15	12.4	12.4	12.4	87	9.3	0	0	---	0.00	30.329 
08:20	13.1	13.1	13.1	87	10.0	0	1	248	0.00	30.321 
08:25	13.8	13.8	13.8	87	10.7	0	1	248	0.00	30.324 
08:30	14.8	14.8	14.8	88	11.9	0	0	---	0.00	30.323 
08:35	15.4	15.4	15.4	88	12.5	0	1	248	0.00	30.323 
08:40	15.9	15.9	15.9	86	12.5	0	1	248	0.00	30.321 
08:45	16.5	16.5	16.5	84	12.5	0	1	248	0.00	30.322 
08:50	17.2	17.2	17.2	81	12.4	0	1	248	0.00	30.320 
08:55	17.8	17.8	17.8	77	11.8	1	3	112	0.00	30.316 
09:00	18.0	18.0	18.0	75	11.4	1	3	112	0.00	30.311 
09:05	18.4	18.4	18.4	74	11.5	0	2	112	0.00	30.317 
09:10	18.9	18.9	18.9	73	11.7	1	4	112	0.00	30.312 
09:15	19.2	19.2	19.2	70	11.0	1	4	135	0.00	30.308 
09:20	19.5	19.5	19.5	69	11.0	1	5	112	0.00	30.312 
09:25	20.2	20.2	20.2	68	11.4	1	3	112	0.00	30.308 
09:30	20.3	20.3	20.3	66	10.8	1	3	112	0.00	30.313 
09:35	20.3	20.3	20.3	67	11.1	1	3	135	0.00	30.319 
09:40	20.8	20.8	20.8	65	10.9	1	4	112	0.00	30.321 
09:45	21.1	21.1	21.1	65	11.2	2	3	90	0.00	30.324 
09:50	21.8	21.8	21.8	64	11.5	1	4	90	0.00	30.329 
09:55	21.9	21.9	21.9	63	11.3	1	3	112	0.00	30.334 
10:00	22.1	22.1	22.1	62	11.1	1	6	90	0.00	30.334 
10:05	21.9	21.9	21.9	62	10.9	1	4	90	0.00	30.337 
10:10	22.2	22.2	22.2	62	11.2	1	5	90	0.00	30.336 
10:15	22.7	22.7	22.7	61	11.3	1	3	112	0.00	30.331 
10:20	22.9	22.9	22.9	59	10.7	1	4	68	0.00	30.332 
10:25	23.2	23.2	23.2	59	11.0	1	5	112	0.00	30.332 
10:30	23.3	23.3	23.3	60	11.5	1	3	90	0.00	30.332 
10:35	23.6	23.6	23.6	59	11.4	1	2	112	0.00	30.332 
10:40	23.9	23.9	23.9	58	11.3	1	4	68	0.00	30.332 
10:45	23.9	23.9	23.9	60	12.1	1	5	90	0.00	30.326 
10:50	23.9	23.9	23.9	58	11.3	2	6	112	0.00	30.322 
10:55	23.8	23.8	23.8	59	11.6	2	4	112	0.00	30.315 
11:00	23.8	23.8	23.8	59	11.6	2	5	90	0.00	30.304 
11:05	24.4	24.4	24.4	58	11.8	1	5	135	0.00	30.304 
11:10	24.4	24.4	24.4	58	11.8	2	5	112	0.00	30.305 
11:15	24.4	24.4	24.4	58	11.8	1	5	112	0.00	30.298 
11:20	24.7	24.7	24.7	59	12.4	1	3	112	0.00	30.297 
11:25	24.7	24.7	24.7	58	12.1	2	4	112	0.00	30.300 
11:30	24.8	24.8	24.8	58	12.1	1	4	112	0.00	30.299 
11:35	25.0	25.0	25.0	57	11.9	2	6	90	0.00	30.290 
11:40	24.2	24.2	24.2	59	12.0	2	5	112	0.00	30.289 
11:45	24.1	24.1	24.1	58	11.5	3	5	112	0.00	30.276 
11:50	24.1	24.1	24.1	58	11.5	2	7	112	0.00	30.276 
11:55	24.4	24.4	24.4	58	11.8	2	4	112	0.00	30.269 
12:00	24.8	24.8	24.8	59	12.5	2	4	112	0.00	30.270 
12:05	24.8	24.8	24.8	58	12.1	3	6	90	0.00	30.266 
12:10	24.7	24.7	24.7	60	12.8	2	5	90	0.00	30.261 
12:15	24.5	24.5	24.5	59	12.3	2	7	90	0.00	30.259 
12:20	25.0	25.0	25.0	59	12.7	1	5	90	0.00	30.260 
12:25	25.4	25.4	25.4	58	12.7	1	5	112	0.00	30.260 
12:30	25.4	25.4	25.4	60	13.5	1	4	112	0.00	30.260 
12:35	25.6	25.6	25.6	60	13.7	2	4	90	0.00	30.262 
12:40	25.1	25.1	25.1	59	12.8	2	5	90	0.00	30.259 
12:45	25.1	25.1	25.1	60	13.2	1	6	112	0.00	30.260 
12:50	25.4	25.4	25.4	59	13.1	2	4	90	0.00	30.260 
12:55	25.6	25.6	25.6	59	13.3	2	5	112	0.00	30.257 
13:00	25.8	25.8	25.8	60	13.9	1	3	112	0.00	30.253 
13:05	26.0	26.0	26.0	60	14.0	2	5	112	0.00	30.253 
13:10	26.1	26.1	26.1	60	14.1	2	9	112	0.00	30.250 
13:15	26.0	26.0	26.0	60	14.0	2	7	90	0.00	30.238 
13:20	26.0	26.0	26.0	62	14.8	2	7	90	0.00	30.236 
13:25	26.3	26.3	26.3	61	14.7	2	4	135	0.00	30.234 
13:30	26.3	26.3	26.3	61	14.7	2	6	112	0.00	30.229 
13:35	26.3	26.3	26.3	62	15.1	3	6	112	0.00	30.228 
13:40	26.4	26.4	26.4	61	14.8	1	4	112	0.00	30.223 
13:45	26.4	26.4	26.4	61	14.8	1	5	90	0.00	30.227 
13:50	26.4	26.4	26.4	61	14.8	2	6	112	0.00	30.224 
13:55	26.7	26.7	26.7	61	15.1	1	4	135	0.00	30.222 
14:00	26.9	26.9	26.9	60	14.9	2	5	112	0.00	30.214 
14:05	27.0	27.0	27.0	60	15.0	2	5	112	0.00	30.212 
14:10	27.0	27.0	27.0	60	15.0	2	5	112	0.00	30.208 
14:15	27.0	27.0	27.0	60	15.0	3	6	112	0.00	30.201 
14:20	27.2	27.2	27.2	60	15.2	3	6	112	0.00	30.197 
14:25	27.3	27.3	27.3	59	14.9	3	6	112	0.00	30.197 
14:30	27.6	27.6	27.6	60	15.6	1	4	112	0.00	30.196 
14:35	27.9	27.9	27.9	60	15.8	1	4	112	0.00	30.196 
14:40	28.2	28.2	28.2	59	15.7	2	5	112	0.00	30.197 
14:45	28.4	28.4	28.4	60	16.3	1	4	90	0.00	30.195 
14:50	28.4	28.4	28.4	60	16.3	2	6	112	0.00	30.194 
14:55	28.5	28.5	28.5	59	16.0	1	5	112	0.00	30.191 
15:00	28.4	28.4	28.4	60	16.3	2	5	112	0.00	30.189 
15:05	28.5	28.5	28.5	60	16.4	2	6	112	0.00	30.186 
15:10	28.4	28.4	28.4	60	16.3	3	7	112	0.00	30.181 
15:15	28.4	28.4	28.4	61	16.7	2	9	90	0.00	30.178 
15:20	28.8	28.8	28.8	59	16.3	1	3	112	0.00	30.177 
15:25	29.1	29.1	29.1	60	17.0	1	3	90	0.00	30.178 
15:30	29.4	29.4	29.4	61	17.6	2	5	90	0.00	30.172 
15:35	29.4	29.4	29.4	61	17.6	2	4	112	0.00	30.174 
15:40	29.5	29.5	29.5	60	17.3	1	5	112	0.00	30.167 
15:45	29.5	29.5	29.5	60	17.3	1	4	112	0.00	30.175 
15:50	29.8	29.8	29.8	60	17.6	1	6	112	0.00	30.171 
15:55	29.7	29.7	29.7	60	17.5	2	7	112	0.00	30.162 
16:00	29.7	29.7	29.7	61	17.9	1	6	112	0.00	30.163 
16:05	29.8	29.8	29.8	61	18.0	1	2	112	0.00	30.166 
16:10	30.0	30.0	30.0	60	17.8	1	6	112	0.00	30.162 
16:15	29.8	29.8	29.8	62	18.4	3	9	112	0.00	30.161 
16:20	29.8	29.8	29.8	62	18.4	1	3	135	0.00	30.162 
16:25	29.8	29.8	29.8	62	18.4	2	4	90	0.00	30.156 
16:30	29.8	29.8	29.8	62	18.4	1	5	90	0.00	30.159 
16:35	29.8	29.8	29.8	62	18.4	1	3	112	0.00	30.158 
16:40	29.8	29.8	29.8	63	18.8	1	4	112	0.00	30.162 
16:45	29.8	29.8	29.8	63	18.8	1	2	90	0.00	30.154 
16:50	29.8	29.8	29.8	63	18.8	2	4	112	0.00	30.148 
16:55	29.8	29.8	29.8	64	19.1	1	3	90	0.00	30.144 
17:00	29.8	29.8	29.8	64	19.1	2	6	112	0.00	30.146 
17:05	29.7	29.7	29.7	65	19.4	2	4	112	0.00	30.139 
17:10	29.4	29.4	29.4	65	19.1	3	6	112	0.00	30.135 
17:15	29.3	29.3	29.3	65	19.0	3	5	112	0.00	30.132 
17:20	29.1	29.1	29.1	65	18.8	3	5	112	0.00	30.127 
17:25	29.0	29.0	29.0	66	19.1	1	4	112	0.00	30.126 
17:30	28.8	28.8	28.8	66	18.9	2	6	112	0.00	30.123 
17:35	28.8	28.8	28.8	66	18.9	2	5	112	0.00	30.123 
17:40	28.8	28.8	28.8	66	18.9	2	6	90	0.00	30.117 
17:45	28.7	28.7	28.7	67	19.2	2	3	90	0.00	30.115 
17:50	28.5	28.5	28.5	67	19.0	2	5	90	0.00	30.114 
17:55	28.4	28.4	28.4	68	19.2	1	4	90	0.00	30.115 
18:00	28.2	28.2	28.2	68	19.0	1	2	90	0.00	30.116 
18:05	28.1	28.1	28.1	68	18.9	1	3	90	0.00	30.113 
18:10	27.9	27.9	27.9	68	18.7	1	3	90	0.00	30.112 
18:15	27.8	27.8	27.8	69	19.0	2	4	90	0.00	30.108 
18:20	27.6	27.6	27.6	69	18.8	1	3	112	0.00	30.106 
18:25	27.3	27.3	27.3	70	18.8	1	3	112	0.00	30.103 
18:30	27.2	27.2	27.2	70	18.7	1	2	112	0.00	30.104 
18:35	27.0	27.0	27.0	71	18.9	1	3	112	0.00	30.100 
18:40	26.7	26.7	26.7	71	18.6	1	3	112	0.00	30.099 
18:45	26.6	26.6	26.6	71	18.5	1	4	112	0.00	30.098 
18:50	26.6	26.6	26.6	71	18.5	1	4	112	0.00	30.097 
18:55	26.6	26.6	26.6	71	18.5	1	5	90	0.00	30.095 
19:00	26.4	26.4	26.4	71	18.3	1	3	90	0.00	30.097 
19:05	26.3	26.3	26.3	71	18.2	1	2	90	0.00	30.099 
19:10	26.1	26.1	26.1	71	18.0	1	3	90	0.00	30.100 
19:15	26.0	26.0	26.0	71	17.9	1	2	90	0.00	30.097 
19:20	25.8	25.8	25.8	71	17.7	1	3	90	0.00	30.089 
19:25	25.7	25.7	25.7	71	17.6	1	3	90	0.00	30.086 
19:30	25.6	25.6	25.6	72	17.8	1	3	90	0.00	30.078 
19:35	25.4	25.4	25.4	72	17.7	1	4	90	0.00	30.080 
19:40	25.3	25.3	25.3	72	17.6	1	4	112	0.00	30.078 
19:45	25.1	25.1	25.1	71	17.0	2	5	112	0.00	30.072 
19:50	25.0	25.0	25.0	71	16.9	2	5	90	0.00	30.073 
19:55	24.8	24.8	24.8	70	16.4	1	3	90	0.00	30.072 
20:00	24.8	24.8	24.8	70	16.4	0	2	90	0.00	30.072 
20:05	24.7	24.7	24.7	71	16.7	0	2	90	0.00	30.066 
20:10	24.5	24.5	24.5	71	16.5	0	2	90	0.00	30.064 
20:15	24.5	24.5	24.5	71	16.5	0	2	90	0.00	30.065 
20:20	24.4	24.4	24.4	71	16.4	0	1	90	0.00	30.060 
20:25	24.4	24.4	24.4	71	16.4	0	2	90	0.00	30.052 
20:30	24.2	24.2	24.2	72	16.5	0	2	90	0.00	30.048 
20:35	24.2	24.2	24.2	72	16.5	0	1	90	0.00	30.042 
20:40	24.2	24.2	24.2	72	16.5	0	2	90	0.00	30.037 
20:45	24.1	24.1	24.1	73	16.7	0	2	90	0.00	30.035 
20:50	24.1	24.1	24.1	73	16.7	1	2	90	0.00	30.031 
20:55	23.9	23.9	23.9	73	16.5	0	2	90	0.00	30.027 
21:00	23.9	23.9	23.9	73	16.5	0	2	90	0.00	30.021 
21:05	23.8	23.8	23.8	74	16.7	0	1	90	0.00	30.015 
21:10	23.8	23.8	23.8	74	16.7	1	2	90	0.00	30.014 
21:15	23.8	23.8	23.8	74	16.7	0	2	90	0.00	30.013 
21:20	23.6	23.6	23.6	74	16.6	0	2	90	0.00	30.010 
21:25	23.6	23.6	23.6	74	16.6	1	2	90	0.00	30.004 
21:30	23.6	23.6	23.6	74	16.6	0	1	90	0.00	29.999 
21:35	23.6	23.6	23.6	75	16.9	0	2	90	0.00	29.999 
21:40	23.8	23.8	23.8	75	17.1	1	2	90	0.00	29.998 
21:45	24.1	24.1	24.1	75	17.3	1	3	90	0.00	29.990 
21:50	24.1	24.1	24.1	75	17.3	1	2	90	0.00	29.992 
21:55	24.2	24.2	24.2	75	17.4	0	2	90	0.00	29.995 
22:00	24.2	24.2	24.2	75	17.4	0	2	90	0.00	29.992 
22:05	24.2	24.2	24.2	75	17.4	1	2	90	0.00	29.982 
22:10	24.2	24.2	24.2	76	17.7	1	3	90	0.00	29.980 
22:15	24.2	24.2	24.2	76	17.7	1	4	90	0.00	29.974 
22:20	24.5	24.5	24.5	77	18.3	1	2	90	0.00	29.973 
22:25	24.7	24.7	24.7	77	18.5	1	2	90	0.00	29.970 
22:30	24.8	24.8	24.8	77	18.6	1	2	90	0.00	29.966 
22:35	25.1	25.1	25.1	77	18.9	1	3	90	0.00	29.966 
22:40	25.3	25.3	25.3	77	19.1	1	2	90	0.00	29.960 
22:45	25.4	25.4	25.4	77	19.2	0	2	90	0.00	29.955 
22:50	25.6	25.6	25.6	78	19.7	1	2	90	0.00	29.948 
22:55	25.8	25.8	25.8	78	19.9	1	2	90	0.00	29.946 
23:00	26.0	26.0	26.0	78	20.1	1	3	90	0.00	29.944 
23:05	26.1	26.1	26.1	79	20.5	1	3	90	0.00	29.942 
23:10	26.4	26.4	26.4	79	20.8	1	2	90	0.00	29.937 
23:15	26.7	26.7	26.7	79	21.1	1	4	90	0.00	29.929 
23:20	26.9	26.9	26.9	79	21.3	1	2	90	0.00	29.926 
23:25	27.0	27.0	27.0	79	21.4	1	3	90	0.00	29.919 
23:30	27.2	27.2	27.2	79	21.6	2	3	90	0.00	29.914 
23:35	27.2	27.2	27.2	79	21.6	1	3	90	0.00	29.914 
23:40	27.3	27.3	27.3	80	22.0	1	2	90	0.00	29.913 
23:45	27.5	27.5	27.5	80	22.2	1	3	90	0.00	29.910 
23:50	27.6	27.6	27.6	80	22.3	1	3	90	0.00	29.904 
23:55	27.8	27.8	27.8	80	22.4	1	3	90	0.00	29.900 

CoCoRaHS
IN-AL-39
A2 Web Hosting
Creative Commons License
GoDaddy
Look for:

loaded 2017-10-17 09:24:37 • last modified 2010-11-18 10:43:29
Privacy PolicyDisclaimer
• wx.awcolley.com is powered by PmWiki v.2002016 •
• all content (unless otherwise noted) © 2017 A W Colley